sensor_id;sensor_type;location;lat;lon;timestamp;pressure;altitude;pressure_sealevel;temperature;humidity
46836;BME280;32573;51.290;6.926;2023-11-21T00:00:14;99639.94;;;9.54;100.00
46836;BME280;32573;51.290;6.926;2023-11-21T00:02:44;99636.41;;;9.53;100.00
46836;BME280;32573;51.290;6.926;2023-11-21T00:05:14;99639.88;;;9.52;100.00
46836;BME280;32573;51.290;6.926;2023-11-21T00:07:43;99632.06;;;9.52;100.00
46836;BME280;32573;51.290;6.926;2023-11-21T00:10:12;99643.34;;;9.51;100.00
46836;BME280;32573;51.290;6.926;2023-11-21T00:12:43;99638.13;;;9.51;100.00
46836;BME280;32573;51.290;6.926;2023-11-21T00:15:14;99639.84;;;9.50;100.00
46836;BME280;32573;51.290;6.926;2023-11-21T00:17:43;99641.56;;;9.50;100.00
46836;BME280;32573;51.290;6.926;2023-11-21T00:20:11;99646.78;;;9.50;100.00
46836;BME280;32573;51.290;6.926;2023-11-21T00:22:41;99651.19;;;9.51;100.00
46836;BME280;32573;51.290;6.926;2023-11-21T00:25:11;99650.28;;;9.49;100.00
46836;BME280;32573;51.290;6.926;2023-11-21T00:27:42;99647.59;;;9.47;100.00
46836;BME280;32573;51.290;6.926;2023-11-21T00:30:14;99656.31;;;9.46;100.00
46836;BME280;32573;51.290;6.926;2023-11-21T00:32:42;99660.63;;;9.46;100.00
46836;BME280;32573;51.290;6.926;2023-11-21T00:35:12;99657.19;;;9.47;100.00
46836;BME280;32573;51.290;6.926;2023-11-21T00:37:41;99651.97;;;9.47;100.00
46836;BME280;32573;51.290;6.926;2023-11-21T00:40:12;99660.72;;;9.49;100.00
46836;BME280;32573;51.290;6.926;2023-11-21T00:42:43;99671.16;;;9.49;100.00
46836;BME280;32573;51.290;6.926;2023-11-21T00:45:13;99661.59;;;9.49;100.00
46836;BME280;32573;51.290;6.926;2023-11-21T00:47:45;99661.66;;;9.51;100.00
46836;BME280;32573;51.290;6.926;2023-11-21T00:50:14;99652.03;;;9.50;100.00
46836;BME280;32573;51.290;6.926;2023-11-21T00:52:43;99655.50;;;9.49;100.00
46836;BME280;32573;51.290;6.926;2023-11-21T00:55:12;99658.09;;;9.49;100.00
46836;BME280;32573;51.290;6.926;2023-11-21T00:57:41;99664.16;;;9.48;100.00
46836;BME280;32573;51.290;6.926;2023-11-21T01:00:10;99664.97;;;9.45;100.00
46836;BME280;32573;51.290;6.926;2023-11-21T01:02:43;99664.97;;;9.45;100.00
46836;BME280;32573;51.290;6.926;2023-11-21T01:05:12;99664.03;;;9.43;100.00
46836;BME280;32573;51.290;6.926;2023-11-21T01:07:41;99670.13;;;9.42;100.00
46836;BME280;32573;51.290;6.926;2023-11-21T01:10:10;99664.03;;;9.42;100.00
46836;BME280;32573;51.290;6.926;2023-11-21T01:12:39;99671.81;;;9.40;100.00
46836;BME280;32573;51.290;6.926;2023-11-21T01:15:09;99666.56;;;9.39;100.00
46836;BME280;32573;51.290;6.926;2023-11-21T01:17:39;99665.66;;;9.37;100.00
46836;BME280;32573;51.290;6.926;2023-11-21T01:20:11;99674.31;;;9.36;100.00
46836;BME280;32573;51.290;6.926;2023-11-21T01:22:41;99676.91;;;9.34;100.00
46836;BME280;32573;51.290;6.926;2023-11-21T01:25:11;99679.47;;;9.33;100.00
46836;BME280;32573;51.290;6.926;2023-11-21T01:27:42;99684.56;;;9.28;100.00
46836;BME280;32573;51.290;6.926;2023-11-21T01:30:11;99693.22;;;9.25;100.00
46836;BME280;32573;51.290;6.926;2023-11-21T01:32:40;99682.69;;;9.22;100.00
46836;BME280;32573;51.290;6.926;2023-11-21T01:35:10;99696.47;;;9.17;100.00
46836;BME280;32573;51.290;6.926;2023-11-21T01:37:39;99696.41;;;9.14;100.00
46836;BME280;32573;51.290;6.926;2023-11-21T01:40:08;99698.91;;;9.09;100.00
46836;BME280;32573;51.290;6.926;2023-11-21T01:42:41;99695.31;;;9.05;100.00
46836;BME280;32573;51.290;6.926;2023-11-21T01:45:11;99696.09;;;9.03;100.00
46836;BME280;32573;51.290;6.926;2023-11-21T01:47:41;99696.03;;;9.00;100.00
46836;BME280;32573;51.290;6.926;2023-11-21T01:50:14;99689.88;;;8.98;100.00
46836;BME280;32573;51.290;6.926;2023-11-21T01:52:45;99690.75;;;8.97;100.00
46836;BME280;32573;51.290;6.926;2023-11-21T01:55:16;99693.28;;;8.95;100.00
46836;BME280;32573;51.290;6.926;2023-11-21T01:57:55;99694.97;;;8.93;100.00
46836;BME280;32573;51.290;6.926;2023-11-21T02:00:24;99698.50;;;8.94;100.00
46836;BME280;32573;51.290;6.926;2023-11-21T02:02:56;99699.31;;;8.93;100.00
46836;BME280;32573;51.290;6.926;2023-11-21T02:05:28;99699.31;;;8.93;100.00
46836;BME280;32573;51.290;6.926;2023-11-21T02:07:58;99703.59;;;8.91;100.00
46836;BME280;32573;51.290;6.926;2023-11-21T02:10:28;99709.69;;;8.90;100.00
46836;BME280;32573;51.290;6.926;2023-11-21T02:12:58;99705.31;;;8.89;100.00
46836;BME280;32573;51.290;6.926;2023-11-21T02:15:30;99720.13;;;8.90;100.00
46836;BME280;32573;51.290;6.926;2023-11-21T02:17:59;99708.81;;;8.89;100.00
46836;BME280;32573;51.290;6.926;2023-11-21T02:20:29;99719.25;;;8.89;100.00
46836;BME280;32573;51.290;6.926;2023-11-21T02:23:00;99721.84;;;8.89;100.00
46836;BME280;32573;51.290;6.926;2023-11-21T02:25:30;99720.13;;;8.90;100.00
46836;BME280;32573;51.290;6.926;2023-11-21T02:28:00;99725.34;;;8.90;100.00
46836;BME280;32573;51.290;6.926;2023-11-21T02:30:30;99727.09;;;8.91;100.00
46836;BME280;32573;51.290;6.926;2023-11-21T02:33:00;99721.88;;;8.91;100.00
46836;BME280;32573;51.290;6.926;2023-11-21T02:35:30;99732.31;;;8.91;100.00
46836;BME280;32573;51.290;6.926;2023-11-21T02:38:01;99729.72;;;8.91;100.00
46836;BME280;32573;51.290;6.926;2023-11-21T02:40:30;99727.09;;;8.91;100.00
46836;BME280;32573;51.290;6.926;2023-11-21T02:42:59;99724.50;;;8.91;100.00
46836;BME280;32573;51.290;6.926;2023-11-21T02:45:27;99727.09;;;8.91;100.00
46836;BME280;32573;51.290;6.926;2023-11-21T02:47:56;99728.88;;;8.92;100.00
46836;BME280;32573;51.290;6.926;2023-11-21T02:50:26;99731.50;;;8.93;100.00
46836;BME280;32573;51.290;6.926;2023-11-21T02:52:55;99730.63;;;8.93;100.00
46836;BME280;32573;51.290;6.926;2023-11-21T02:55:27;99732.44;;;8.94;100.00
46836;BME280;32573;51.290;6.926;2023-11-21T02:57:56;99733.31;;;8.94;100.00
46836;BME280;32573;51.290;6.926;2023-11-21T03:00:25;99744.63;;;8.95;100.00
46836;BME280;32573;51.290;6.926;2023-11-21T03:02:55;99742.00;;;8.95;100.00
46836;BME280;32573;51.290;6.926;2023-11-21T03:05:25;99746.38;;;8.96;100.00
46836;BME280;32573;51.290;6.926;2023-11-21T03:07:56;99755.13;;;8.98;100.00
46836;BME280;32573;51.290;6.926;2023-11-21T03:10:27;99751.69;;;8.99;100.00
46836;BME280;32573;51.290;6.926;2023-11-21T03:12:56;99761.28;;;9.00;100.00
46836;BME280;32573;51.290;6.926;2023-11-21T03:15:25;99756.06;;;9.00;100.00
46836;BME280;32573;51.290;6.926;2023-11-21T03:17:53;99759.63;;;9.02;100.00
46836;BME280;32573;51.290;6.926;2023-11-21T03:20:22;99747.44;;;9.02;100.00
46836;BME280;32573;51.290;6.926;2023-11-21T03:22:51;99744.88;;;9.04;100.00
46836;BME280;32573;51.290;6.926;2023-11-21T03:25:20;99742.22;;;9.02;100.00
46836;BME280;32573;51.290;6.926;2023-11-21T03:27:53;99746.56;;;9.02;100.00
46836;BME280;32573;51.290;6.926;2023-11-21T03:30:22;99753.53;;;9.03;100.00
46836;BME280;32573;51.290;6.926;2023-11-21T03:32:51;99758.75;;;9.03;100.00
46836;BME280;32573;51.290;6.926;2023-11-21T03:35:20;99765.75;;;9.04;100.00
46836;BME280;32573;51.290;6.926;2023-11-21T03:37:49;99762.31;;;9.05;100.00
46836;BME280;32573;51.290;6.926;2023-11-21T03:40:18;99777.09;;;9.06;100.00
46836;BME280;32573;51.290;6.926;2023-11-21T03:42:48;99771.06;;;9.07;100.00
46836;BME280;32573;51.290;6.926;2023-11-21T03:45:22;99778.94;;;9.09;100.00
46836;BME280;32573;51.290;6.926;2023-11-21T03:47:50;99772.81;;;9.08;100.00
46836;BME280;32573;51.290;6.926;2023-11-21T03:50:19;99775.47;;;9.10;100.00
46836;BME280;32573;51.290;6.926;2023-11-21T03:52:48;99786.81;;;9.10;100.00
46836;BME280;32573;51.290;6.926;2023-11-21T03:55:16;99787.69;;;9.11;100.00
46836;BME280;32573;51.290;6.926;2023-11-21T03:57:45;99794.69;;;9.12;100.00
46836;BME280;32573;51.290;6.926;2023-11-21T04:00:14;99793.81;;;9.11;100.00
46836;BME280;32573;51.290;6.926;2023-11-21T04:02:45;99796.41;;;9.11;100.00
46836;BME280;32573;51.290;6.926;2023-11-21T04:05:15;99815.59;;;9.13;100.00
46836;BME280;32573;51.290;6.926;2023-11-21T04:07:43;99814.78;;;9.14;100.00
46836;BME280;32573;51.290;6.926;2023-11-21T04:10:12;99807.75;;;9.13;100.00
46836;BME280;32573;51.290;6.926;2023-11-21T04:12:41;99795.66;;;9.15;100.00
46836;BME280;32573;51.290;6.926;2023-11-21T04:15:10;99796.50;;;9.14;100.00
46836;BME280;32573;51.290;6.926;2023-11-21T04:17:40;99799.09;;;9.14;100.00
46836;BME280;32573;51.290;6.926;2023-11-21T04:20:11;99800.00;;;9.15;100.00
46836;BME280;32573;51.290;6.926;2023-11-21T04:22:40;99793.00;;;9.14;100.00
46836;BME280;32573;51.290;6.926;2023-11-21T04:25:12;99813.91;;;9.14;100.00
46836;BME280;32573;51.290;6.926;2023-11-21T04:27:42;99811.22;;;9.12;100.00
46836;BME280;32573;51.290;6.926;2023-11-21T04:30:13;99812.09;;;9.11;100.00
46836;BME280;32573;51.290;6.926;2023-11-21T04:32:41;99812.91;;;9.10;100.00
46836;BME280;32573;51.290;6.926;2023-11-21T04:35:12;99805.94;;;9.09;100.00
46836;BME280;32573;51.290;6.926;2023-11-21T04:37:42;99807.59;;;9.07;100.00
46836;BME280;32573;51.290;6.926;2023-11-21T04:40:11;99812.84;;;9.07;100.00
46836;BME280;32573;51.290;6.926;2023-11-21T04:42:40;99815.38;;;9.05;100.00
46836;BME280;32573;51.290;6.926;2023-11-21T04:45:09;99822.28;;;9.03;100.00
46836;BME280;32573;51.290;6.926;2023-11-21T04:47:39;99814.44;;;9.02;100.00
46836;BME280;32573;51.290;6.926;2023-11-21T04:50:09;99810.00;;;8.99;100.00
46836;BME280;32573;51.290;6.926;2023-11-21T04:52:39;99817.78;;;8.98;100.00
46836;BME280;32573;51.290;6.926;2023-11-21T04:55:08;99824.69;;;8.96;100.00
46836;BME280;32573;51.290;6.926;2023-11-21T04:57:38;99832.47;;;8.94;100.00
46836;BME280;32573;51.290;6.926;2023-11-21T05:00:09;99826.34;;;8.92;100.00
46836;BME280;32573;51.290;6.926;2023-11-21T05:02:39;99831.50;;;8.91;100.00
46836;BME280;32573;51.290;6.926;2023-11-21T05:05:09;99836.63;;;8.88;100.00
46836;BME280;32573;51.290;6.926;2023-11-21T05:07:40;99836.53;;;8.84;100.00
46836;BME280;32573;51.290;6.926;2023-11-21T05:10:09;99834.72;;;8.82;100.00
46836;BME280;32573;51.290;6.926;2023-11-21T05:12:40;99841.63;;;8.80;100.00
46836;BME280;32573;51.290;6.926;2023-11-21T05:15:12;99848.50;;;8.76;100.00
46836;BME280;32573;51.290;6.926;2023-11-21T05:17:42;99843.16;;;8.73;100.00
46836;BME280;32573;51.290;6.926;2023-11-21T05:20:12;99850.09;;;8.73;100.00
46836;BME280;32573;51.290;6.926;2023-11-21T05:22:47;99847.50;;;8.73;100.00
46836;BME280;32573;51.290;6.926;2023-11-21T05:25:16;99851.84;;;8.72;100.00
46836;BME280;32573;51.290;6.926;2023-11-21T05:27:47;99852.69;;;8.71;100.00
46836;BME280;32573;51.290;6.926;2023-11-21T05:30:15;99859.66;;;8.72;100.00
46836;BME280;32573;51.290;6.926;2023-11-21T05:32:44;99860.53;;;8.71;100.00
46836;BME280;32573;51.290;6.926;2023-11-21T05:35:14;99863.13;;;8.71;100.00
46836;BME280;32573;51.290;6.926;2023-11-21T05:37:46;99865.75;;;8.71;100.00
46836;BME280;32573;51.290;6.926;2023-11-21T05:40:15;99866.63;;;8.72;100.00
46836;BME280;32573;51.290;6.926;2023-11-21T05:42:44;99873.56;;;8.71;100.00
46836;BME280;32573;51.290;6.926;2023-11-21T05:45:13;99877.94;;;8.72;100.00
46836;BME280;32573;51.290;6.926;2023-11-21T05:47:43;99877.06;;;8.73;100.00
46836;BME280;32573;51.290;6.926;2023-11-21T05:50:15;99878.00;;;8.75;100.00
46836;BME280;32573;51.290;6.926;2023-11-21T05:52:45;99884.09;;;8.74;100.00
46836;BME280;32573;51.290;6.926;2023-11-21T05:55:16;99889.34;;;8.76;100.00
46836;BME280;32573;51.290;6.926;2023-11-21T05:57:45;99881.47;;;8.74;100.00
46836;BME280;32573;51.290;6.926;2023-11-21T06:00:14;99888.44;;;8.74;100.00
46836;BME280;32573;51.290;6.926;2023-11-21T06:02:48;99897.13;;;8.74;100.00
46836;BME280;32573;51.290;6.926;2023-11-21T06:05:20;99898.88;;;8.75;100.00
46836;BME280;32573;51.290;6.926;2023-11-21T06:07:50;99909.41;;;8.78;100.00
46836;BME280;32573;51.290;6.926;2023-11-21T06:10:21;99906.00;;;8.79;100.00
46836;BME280;32573;51.290;6.926;2023-11-21T06:12:52;99910.34;;;8.80;100.00
46836;BME280;32573;51.290;6.926;2023-11-21T06:15:21;99915.56;;;8.80;100.00
46836;BME280;32573;51.290;6.926;2023-11-21T06:17:51;99921.72;;;8.82;100.00
46836;BME280;32573;51.290;6.926;2023-11-21T06:20:21;99925.28;;;8.84;100.00
46836;BME280;32573;51.290;6.926;2023-11-21T06:22:51;99925.28;;;8.84;100.00
46836;BME280;32573;51.290;6.926;2023-11-21T06:25:21;99932.25;;;8.85;100.00
46836;BME280;32573;51.290;6.926;2023-11-21T06:27:50;99930.59;;;8.88;100.00
46836;BME280;32573;51.290;6.926;2023-11-21T06:30:21;99930.59;;;8.88;100.00
46836;BME280;32573;51.290;6.926;2023-11-21T06:32:51;99937.59;;;8.89;100.00
46836;BME280;32573;51.290;6.926;2023-11-21T06:35:20;99950.66;;;8.89;100.00
46836;BME280;32573;51.290;6.926;2023-11-21T06:37:49;99946.34;;;8.91;100.00
46836;BME280;32573;51.290;6.926;2023-11-21T06:40:20;99949.84;;;8.91;100.00
46836;BME280;32573;51.290;6.926;2023-11-21T06:42:49;99957.69;;;8.91;100.00
46836;BME280;32573;51.290;6.926;2023-11-21T06:45:18;99955.09;;;8.93;100.00
46836;BME280;32573;51.290;6.926;2023-11-21T06:47:47;99967.34;;;8.95;100.00
46836;BME280;32573;51.290;6.926;2023-11-21T06:50:17;99967.41;;;8.97;100.00
46836;BME280;32573;51.290;6.926;2023-11-21T06:52:46;99970.06;;;8.98;100.00
46836;BME280;32573;51.290;6.926;2023-11-21T06:55:16;99969.19;;;8.98;100.00
46836;BME280;32573;51.290;6.926;2023-11-21T06:57:46;99974.47;;;8.99;100.00
46836;BME280;32573;51.290;6.926;2023-11-21T07:00:16;99980.56;;;9.00;100.00
46836;BME280;32573;51.290;6.926;2023-11-21T07:02:46;99983.16;;;9.00;100.00
46836;BME280;32573;51.290;6.926;2023-11-21T07:05:14;99990.16;;;9.01;100.00
46836;BME280;32573;51.290;6.926;2023-11-21T07:07:49;99992.88;;;9.04;100.00
46836;BME280;32573;51.290;6.926;2023-11-21T07:10:18;99994.63;;;9.05;100.00
46836;BME280;32573;51.290;6.926;2023-11-21T07:12:48;100003.41;;;9.07;100.00
46836;BME280;32573;51.290;6.926;2023-11-21T07:15:18;100004.34;;;9.09;100.00
46836;BME280;32573;51.290;6.926;2023-11-21T07:17:47;100004.34;;;9.09;100.00
46836;BME280;32573;51.290;6.926;2023-11-21T07:20:16;100006.09;;;9.10;100.00
46836;BME280;32573;51.290;6.926;2023-11-21T07:22:45;100007.91;;;9.11;100.00
46836;BME280;32573;51.290;6.926;2023-11-21T07:25:14;100014.88;;;9.12;100.00
46836;BME280;32573;51.290;6.926;2023-11-21T07:27:43;100018.44;;;9.14;100.00
46836;BME280;32573;51.290;6.926;2023-11-21T07:30:14;100024.59;;;9.16;100.00
46836;BME280;32573;51.290;6.926;2023-11-21T07:32:43;100024.69;;;9.19;100.00
46836;BME280;32573;51.290;6.926;2023-11-21T07:35:12;100021.22;;;9.20;100.00
46836;BME280;32573;51.290;6.926;2023-11-21T07:37:41;100021.28;;;9.22;100.00
46836;BME280;32573;51.290;6.926;2023-11-21T07:40:11;100018.69;;;9.23;100.00
46836;BME280;32573;51.290;6.926;2023-11-21T07:42:40;100020.50;;;9.26;100.00
46836;BME280;32573;51.290;6.926;2023-11-21T07:45:15;100013.63;;;9.28;100.00
46836;BME280;32573;51.290;6.926;2023-11-21T07:47:44;100022.38;;;9.28;100.00
46836;BME280;32573;51.290;6.926;2023-11-21T07:50:12;100012.88;;;9.32;100.00
46836;BME280;32573;51.290;6.926;2023-11-21T07:52:41;100018.16;;;9.34;100.00
46836;BME280;32573;51.290;6.926;2023-11-21T07:55:10;100019.06;;;9.36;100.00
46836;BME280;32573;51.290;6.926;2023-11-21T07:57:38;100025.22;;;9.38;100.00
46836;BME280;32573;51.290;6.926;2023-11-21T08:00:08;100029.66;;;9.40;100.00
46836;BME280;32573;51.290;6.926;2023-11-21T08:02:41;100036.72;;;9.43;100.00
46836;BME280;32573;51.290;6.926;2023-11-21T08:05:13;100038.50;;;9.44;100.00
46836;BME280;32573;51.290;6.926;2023-11-21T08:07:54;100059.47;;;9.47;100.00
46836;BME280;32573;51.290;6.926;2023-11-21T08:10:23;100056.88;;;9.47;100.00
46836;BME280;32573;51.290;6.926;2023-11-21T08:12:52;100064.78;;;9.50;100.00
46836;BME280;32573;51.290;6.926;2023-11-21T08:15:21;100070.97;;;9.52;100.00
46836;BME280;32573;51.290;6.926;2023-11-21T08:17:52;100070.97;;;9.52;100.00
46836;BME280;32573;51.290;6.926;2023-11-21T08:20:21;100079.69;;;9.53;100.00
46836;BME280;32573;51.290;6.926;2023-11-21T08:22:53;100091.06;;;9.55;100.00
46836;BME280;32573;51.290;6.926;2023-11-21T08:25:24;100091.13;;;9.56;100.00
46836;BME280;32573;51.290;6.926;2023-11-21T08:27:53;100089.41;;;9.58;100.00
46836;BME280;32573;51.290;6.926;2023-11-21T08:30:21;100104.28;;;9.59;100.00
46836;BME280;32573;51.290;6.926;2023-11-21T08:32:52;100104.31;;;9.61;100.00
46836;BME280;32573;51.290;6.926;2023-11-21T08:35:21;100106.97;;;9.62;100.00
46836;BME280;32573;51.290;6.926;2023-11-21T08:37:53;100109.69;;;9.65;100.00
46836;BME280;32573;51.290;6.926;2023-11-21T08:40:22;100112.28;;;9.65;100.00
46836;BME280;32573;51.290;6.926;2023-11-21T08:42:50;100116.69;;;9.66;100.00
46836;BME280;32573;51.290;6.926;2023-11-21T08:45:20;100117.56;;;9.67;100.00
46836;BME280;32573;51.290;6.926;2023-11-21T08:47:49;100130.63;;;9.67;100.00
46836;BME280;32573;51.290;6.926;2023-11-21T08:50:19;100119.41;;;9.69;100.00
46836;BME280;32573;51.290;6.926;2023-11-21T08:52:48;100113.31;;;9.70;100.00
46836;BME280;32573;51.290;6.926;2023-11-21T08:55:16;100112.50;;;9.71;100.00
46836;BME280;32573;51.290;6.926;2023-11-21T08:57:47;100121.28;;;9.74;100.00
46836;BME280;32573;51.290;6.926;2023-11-21T09:00:16;100127.41;;;9.76;100.00
46836;BME280;32573;51.290;6.926;2023-11-21T09:02:46;100121.34;;;9.77;100.00
46836;BME280;32573;51.290;6.926;2023-11-21T09:05:15;100135.38;;;9.79;100.00
46836;BME280;32573;51.290;6.926;2023-11-21T09:07:45;100128.44;;;9.81;100.00
46836;BME280;32573;51.290;6.926;2023-11-21T09:10:16;100131.09;;;9.82;100.00
46836;BME280;32573;51.290;6.926;2023-11-21T09:12:44;100139.88;;;9.84;100.00
46836;BME280;32573;51.290;6.926;2023-11-21T09:15:13;100146.94;;;9.87;100.00
46836;BME280;32573;51.290;6.926;2023-11-21T09:17:44;100151.31;;;9.88;100.00
46836;BME280;32573;51.290;6.926;2023-11-21T09:20:13;100155.75;;;9.90;100.00
46836;BME280;32573;51.290;6.926;2023-11-21T09:22:42;100154.06;;;9.92;100.00
46836;BME280;32573;51.290;6.926;2023-11-21T09:25:13;100162.84;;;9.94;100.00
46836;BME280;32573;51.290;6.926;2023-11-21T09:27:43;100163.72;;;9.95;100.00
46836;BME280;32573;51.290;6.926;2023-11-21T09:30:13;100166.34;;;9.95;100.00
46836;BME280;32573;51.290;6.926;2023-11-21T09:32:42;100164.66;;;9.97;100.00
46836;BME280;32573;51.290;6.926;2023-11-21T09:35:13;100172.59;;;10.00;100.00
46836;BME280;32573;51.290;6.926;2023-11-21T09:37:43;100174.38;;;10.01;100.00
46836;BME280;32573;51.290;6.926;2023-11-21T09:40:21;100170.94;;;10.02;100.00
46836;BME280;32573;51.290;6.926;2023-11-21T09:42:54;100175.31;;;10.03;100.00
46836;BME280;32573;51.290;6.926;2023-11-21T09:45:28;100179.72;;;10.06;100.00
46836;BME280;32573;51.290;6.926;2023-11-21T09:47:58;100187.56;;;10.06;100.00
46836;BME280;32573;51.290;6.926;2023-11-21T09:50:27;100185.88;;;10.06;100.00
46836;BME280;32573;51.290;6.926;2023-11-21T09:53:01;100187.63;;;10.07;100.00
46836;BME280;32573;51.290;6.926;2023-11-21T09:55:36;100188.56;;;10.09;100.00
46836;BME280;32573;51.290;6.926;2023-11-21T09:58:06;100191.25;;;10.11;100.00
46836;BME280;32573;51.290;6.926;2023-11-21T10:00:35;100189.59;;;10.14;100.00
46836;BME280;32573;51.290;6.926;2023-11-21T10:03:03;100185.31;;;10.17;100.00
46836;BME280;32573;51.290;6.926;2023-11-21T10:05:32;100197.63;;;10.21;100.00
46836;BME280;32573;51.290;6.926;2023-11-21T10:08:07;100202.03;;;10.23;100.00
46836;BME280;32573;51.290;6.926;2023-11-21T10:10:42;100199.50;;;10.25;100.00
46836;BME280;32573;51.290;6.926;2023-11-21T10:13:12;100202.09;;;10.25;100.00
46836;BME280;32573;51.290;6.926;2023-11-21T10:15:49;100196.81;;;10.23;100.00
46836;BME280;32573;51.290;6.926;2023-11-21T10:18:18;100201.16;;;10.23;100.00
46836;BME280;32573;51.290;6.926;2023-11-21T10:20:47;100197.72;;;10.24;100.00
46836;BME280;32573;51.290;6.926;2023-11-21T10:23:20;100206.47;;;10.26;100.00
46836;BME280;32573;51.290;6.926;2023-11-21T10:25:54;100196.94;;;10.26;100.00
46836;BME280;32573;51.290;6.926;2023-11-21T10:28:31;100194.38;;;10.28;100.00
46836;BME280;32573;51.290;6.926;2023-11-21T10:31:07;100190.94;;;10.29;100.00
46836;BME280;32573;51.290;6.926;2023-11-21T10:33:36;100195.28;;;10.28;100.00
46836;BME280;32573;51.290;6.926;2023-11-21T10:36:07;100200.53;;;10.28;100.00
46836;BME280;32573;51.290;6.926;2023-11-21T10:38:42;100200.53;;;10.28;100.00
46836;BME280;32573;51.290;6.926;2023-11-21T10:41:14;100208.41;;;10.30;100.00
46836;BME280;32573;51.290;6.926;2023-11-21T10:43:43;100210.19;;;10.31;100.00
46836;BME280;32573;51.290;6.926;2023-11-21T10:46:13;100211.94;;;10.32;100.00
46836;BME280;32573;51.290;6.926;2023-11-21T10:48:42;100210.28;;;10.34;100.00
46836;BME280;32573;51.290;6.926;2023-11-21T10:51:11;100220.72;;;10.34;100.00
46836;BME280;32573;51.290;6.926;2023-11-21T10:53:39;100221.69;;;10.36;100.00
46836;BME280;32573;51.290;6.926;2023-11-21T10:56:15;100225.13;;;10.35;100.00
46836;BME280;32573;51.290;6.926;2023-11-21T10:58:49;100222.50;;;10.35;100.00
46836;BME280;32573;51.290;6.926;2023-11-21T11:01:19;100230.41;;;10.36;100.00
46836;BME280;32573;51.290;6.926;2023-11-21T11:03:50;100228.66;;;10.37;100.00
46836;BME280;32573;51.290;6.926;2023-11-21T11:06:21;100235.72;;;10.40;100.00
46836;BME280;32573;51.290;6.926;2023-11-21T11:08:54;100238.41;;;10.41;100.00
46836;BME280;32573;51.290;6.926;2023-11-21T11:11:24;100232.38;;;10.44;100.00
46836;BME280;32573;51.290;6.926;2023-11-21T11:13:53;100241.09;;;10.44;100.00
46836;BME280;32573;51.290;6.926;2023-11-21T11:16:23;100243.72;;;10.46;100.00
46836;BME280;32573;51.290;6.926;2023-11-21T11:18:54;100242.03;;;10.46;100.00
46836;BME280;32573;51.290;6.926;2023-11-21T11:21:28;100241.19;;;10.47;100.00
46836;BME280;32573;51.290;6.926;2023-11-21T11:24:13;100235.16;;;10.50;100.00
46836;BME280;32573;51.290;6.926;2023-11-21T11:26:54;100243.88;;;10.50;100.00
46836;BME280;32573;51.290;6.926;2023-11-21T11:29:34;100247.41;;;10.51;100.00
46836;BME280;32573;51.290;6.926;2023-11-21T11:32:12;100244.81;;;10.52;100.00
46836;BME280;32573;51.290;6.926;2023-11-21T11:34:48;100242.19;;;10.52;100.00
46836;BME280;32573;51.290;6.926;2023-11-21T11:37:20;100241.38;;;10.53;100.00
46836;BME280;32573;51.290;6.926;2023-11-21T11:39:49;100242.28;;;10.55;100.00
46836;BME280;32573;51.290;6.926;2023-11-21T11:42:21;100245.91;;;10.61;100.00
46836;BME280;32573;51.290;6.926;2023-11-21T11:44:52;100246.06;;;10.65;100.00
46836;BME280;32573;51.290;6.926;2023-11-21T11:47:28;100250.53;;;10.69;100.00
46836;BME280;32573;51.290;6.926;2023-11-21T11:50:03;100252.38;;;10.72;100.00
46836;BME280;32573;51.290;6.926;2023-11-21T11:52:36;100241.03;;;10.73;100.00
46836;BME280;32573;51.290;6.926;2023-11-21T11:55:07;100242.81;;;10.74;100.00
46836;BME280;32573;51.290;6.926;2023-11-21T11:57:43;100241.16;;;10.76;100.00
46836;BME280;32573;51.290;6.926;2023-11-21T12:00:13;100246.41;;;10.77;100.00
46836;BME280;32573;51.290;6.926;2023-11-21T12:02:49;100244.78;;;10.81;100.00
46836;BME280;32573;51.290;6.926;2023-11-21T12:05:19;100247.41;;;10.83;100.00
46836;BME280;32573;51.290;6.926;2023-11-21T12:07:50;100255.34;;;10.84;100.00
46836;BME280;32573;51.290;6.926;2023-11-21T12:10:25;100255.34;;;10.84;100.00
46836;BME280;32573;51.290;6.926;2023-11-21T12:12:57;100260.59;;;10.86;100.00
46836;BME280;32573;51.290;6.926;2023-11-21T12:15:27;100260.66;;;10.87;100.00
46836;BME280;32573;51.290;6.926;2023-11-21T12:17:57;100269.44;;;10.89;100.00
46836;BME280;32573;51.290;6.926;2023-11-21T12:20:27;100266.88;;;10.91;100.00
46836;BME280;32573;51.290;6.926;2023-11-21T12:22:57;100266.03;;;10.92;100.00
46836;BME280;32573;51.290;6.926;2023-11-21T12:25:28;100275.69;;;10.94;100.00
46836;BME280;32573;51.290;6.926;2023-11-21T12:28:01;100266.16;;;10.96;100.00
46836;BME280;32573;51.290;6.926;2023-11-21T12:30:33;100274.94;;;10.98;100.00
46836;BME280;32573;51.290;6.926;2023-11-21T12:33:03;100274.03;;;10.98;100.00
46836;BME280;32573;51.290;6.926;2023-11-21T12:35:34;100269.59;;;10.95;100.00
46836;BME280;32573;51.290;6.926;2023-11-21T12:38:04;100282.75;;;10.97;100.00
46836;BME280;32573;51.290;6.926;2023-11-21T12:40:33;100276.63;;;10.96;100.00
46836;BME280;32573;51.290;6.926;2023-11-21T12:43:03;100285.44;;;10.98;100.00
46836;BME280;32573;51.290;6.926;2023-11-21T12:45:34;100282.81;;;11.00;100.00
46836;BME280;32573;51.290;6.926;2023-11-21T12:48:05;100281.94;;;10.99;100.00
46836;BME280;32573;51.290;6.926;2023-11-21T12:50:40;100288.13;;;11.01;100.00
46836;BME280;32573;51.290;6.926;2023-11-21T12:53:10;100283.81;;;11.04;100.00
46836;BME280;32573;51.290;6.926;2023-11-21T12:55:40;100284.69;;;11.04;100.00
46836;BME280;32573;51.290;6.926;2023-11-21T12:58:11;100290.00;;;11.07;100.00
46836;BME280;32573;51.290;6.926;2023-11-21T13:00:42;100288.34;;;11.09;100.00
46836;BME280;32573;51.290;6.926;2023-11-21T13:03:12;100290.09;;;11.10;100.00
46836;BME280;32573;51.290;6.926;2023-11-21T13:05:46;100298.00;;;11.12;100.00
46836;BME280;32573;51.290;6.926;2023-11-21T13:08:18;100303.25;;;11.12;100.00